createdAt,value
2022-08-21T11:02:10.624Z,27.40
2022-08-21T11:03:45.253Z,24.40
2022-08-21T11:05:20.179Z,26.00
2022-08-21T11:06:56.666Z,25.20
2022-08-21T11:08:30.291Z,27.20
2022-08-21T11:10:14.394Z,24.20
2022-08-21T11:12:17.261Z,25.40
2022-08-21T11:13:55.011Z,24.00
2022-08-21T11:15:45.269Z,18.80
2022-08-21T11:17:22.004Z,24.60
2022-08-21T11:19:01.956Z,25.60
2022-08-21T11:21:01.784Z,23.40
2022-08-21T11:22:42.522Z,24.00
2022-08-21T11:24:39.953Z,23.20
2022-08-21T11:26:51.350Z,22.20
2022-08-21T11:28:29.861Z,21.40
2022-08-21T11:30:02.591Z,23.20
2022-08-21T11:31:34.415Z,20.40
2022-08-21T11:33:06.187Z,21.00
2022-08-21T11:34:52.337Z,22.80
2022-08-21T11:36:47.270Z,20.40
2022-08-21T11:38:25.183Z,21.60
2022-08-21T11:40:31.356Z,24.20
2022-08-21T11:42:15.873Z,22.00
2022-08-21T11:44:02.918Z,20.80
2022-08-21T11:45:40.486Z,18.40
2022-08-21T11:47:41.359Z,21.40
2022-08-21T11:49:32.806Z,20.00
2022-08-21T11:51:11.518Z,18.80
2022-08-21T11:52:53.865Z,16.20
2022-08-21T11:54:46.924Z,20.00
2022-08-21T11:56:28.875Z,19.20
2022-08-21T11:58:09.779Z,13.00
2022-08-21T11:59:49.980Z,17.20
2022-08-21T12:01:27.041Z,17.20
2022-08-21T12:03:32.456Z,21.00
2022-08-21T12:05:09.472Z,16.40
2022-08-21T12:06:42.966Z,20.00
2022-08-21T12:08:32.978Z,18.60
2022-08-21T12:10:10.444Z,22.00
2022-08-21T12:11:50.187Z,21.40
2022-08-21T12:13:35.695Z,22.00
2022-08-21T12:15:21.894Z,13.00
2022-08-21T12:16:54.972Z,21.00
2022-08-21T12:18:31.604Z,20.60
2022-08-21T12:20:34.127Z,20.20
2022-08-21T12:22:05.941Z,16.60
2022-08-21T12:24:16.277Z,18.80
2022-08-21T12:26:01.238Z,15.60
2022-08-21T12:27:53.550Z,15.40
2022-08-21T12:29:37.027Z,17.00
2022-08-21T12:31:28.543Z,13.00
2022-08-21T12:33:34.455Z,18.20
2022-08-21T12:35:30.675Z,15.00
2022-08-21T12:37:35.801Z,17.40
2022-08-21T12:39:13.420Z,13.60
2022-08-21T12:40:59.653Z,10.40
2022-08-21T12:42:44.098Z,15.60
2022-08-21T12:44:18.093Z,8.60
2022-08-21T12:45:50.415Z,9.00
2022-08-21T12:47:36.375Z,13.20
2022-08-21T12:49:29.253Z,13.80
2022-08-21T12:51:18.916Z,12.00
2022-08-21T12:53:06.124Z,14.00
2022-08-21T12:54:52.164Z,12.00
2022-08-21T12:56:26.135Z,11.60
2022-08-21T12:57:58.017Z,12.00
2022-08-21T12:59:31.871Z,11.80
2022-08-21T13:01:08.002Z,12.80
2022-08-21T13:02:44.588Z,14.00
2022-08-21T13:04:38.477Z,12.00
2022-08-21T13:06:16.041Z,14.20
2022-08-21T13:07:48.378Z,23.80
2022-08-21T13:09:25.629Z,21.40
2022-08-21T13:11:13.627Z,22.00
2022-08-21T13:12:47.563Z,22.40
2022-08-21T13:14:30.082Z,21.80
2022-08-21T13:16:06.968Z,19.00
2022-08-21T13:17:41.143Z,19.80
2022-08-21T13:19:13.369Z,20.40
2022-08-21T13:20:45.201Z,22.00
2022-08-21T13:22:33.200Z,20.40
2022-08-21T13:24:41.860Z,20.00
2022-08-21T13:26:20.784Z,16.40
2022-08-21T13:28:06.906Z,18.00
2022-08-21T13:29:39.182Z,14.00
2022-08-21T13:31:14.528Z,15.20
2022-08-21T13:32:49.758Z,13.00
2022-08-21T13:34:30.108Z,10.00
2022-08-21T13:36:40.720Z,13.60
2022-08-21T13:38:13.092Z,11.20
2022-08-21T13:39:50.945Z,11.20
2022-08-21T13:41:29.713Z,10.00
2022-08-21T13:43:01.857Z,6.80
2022-08-21T18:06:30.024Z,23.00
2022-08-21T18:08:01.872Z,22.20
2022-08-21T18:09:33.797Z,11.40
2022-08-21T18:11:05.660Z,16.00
2022-08-21T18:12:42.737Z,13.20
2022-08-21T18:14:15.233Z,13.40
2022-08-21T18:15:49.359Z,13.00
2022-08-21T18:17:21.573Z,10.40
2022-08-21T18:18:53.376Z,9.20
2022-08-21T18:20:25.149Z,9.00
2022-08-21T18:21:58.808Z,8.00
2022-08-21T18:23:43.588Z,5.40
2022-08-21T18:25:16.961Z,6.00
2022-08-21T18:26:49.374Z,5.80
2022-08-21T18:28:21.294Z,5.40
2022-08-21T18:29:55.963Z,5.60
2022-08-21T18:31:28.956Z,5.20
2022-08-21T18:33:00.728Z,7.00
2022-08-21T18:34:39.260Z,6.60
2022-08-21T18:36:11.278Z,6.40
2022-08-21T18:37:43.559Z,6.00
2022-08-21T18:39:35.331Z,6.20
2022-08-21T18:41:10.161Z,6.00
2022-08-21T18:42:55.120Z,6.80
2022-08-21T18:44:31.247Z,4.00
2022-08-21T18:46:03.463Z,6.80
2022-08-21T18:47:40.764Z,6.60
2022-08-21T18:49:12.504Z,6.00
2022-08-21T18:50:45.631Z,6.60
2022-08-21T18:52:20.268Z,4.00
2022-08-21T18:53:56.091Z,8.40
2022-08-21T18:55:28.385Z,7.00
2022-08-21T18:57:00.271Z,3.80
2022-08-21T18:58:37.573Z,8.00
2022-08-21T19:00:17.623Z,6.00
2022-08-21T19:01:50.333Z,7.60
2022-08-21T19:03:23.989Z,6.80
2022-08-21T19:04:56.380Z,7.40
2022-08-21T19:06:28.373Z,6.80
2022-08-21T19:08:00.281Z,6.40
2022-08-21T19:09:32.437Z,7.00
2022-08-21T19:11:04.680Z,6.20
2022-08-21T19:12:36.959Z,5.00
2022-08-21T19:14:13.077Z,8.20
2022-08-21T19:15:50.236Z,8.00
2022-08-21T19:17:22.060Z,6.40
2022-08-21T19:18:54.371Z,6.80
2022-08-21T19:20:34.420Z,7.00
2022-08-21T19:22:10.961Z,8.80
2022-08-21T19:23:44.363Z,7.40
2022-08-21T19:25:17.222Z,8.00
2022-08-21T19:26:49.000Z,5.20
2022-08-21T19:28:32.006Z,6.40
2022-08-21T19:30:05.324Z,7.00
2022-08-21T19:31:41.345Z,10.40
2022-08-21T19:33:23.174Z,8.40
2022-08-21T19:34:55.881Z,7.00
2022-08-21T19:36:31.086Z,5.60
2022-08-21T19:38:03.302Z,7.60
2022-08-21T19:39:44.893Z,6.00
2022-08-21T19:41:35.745Z,4.20
2022-08-21T19:43:11.416Z,6.20
2022-08-21T19:44:43.514Z,4.80
2022-08-21T19:46:18.458Z,5.80
2022-08-21T19:47:51.011Z,5.40
2022-08-21T19:49:25.138Z,6.00
2022-08-21T19:50:56.974Z,6.00
2022-08-21T19:52:28.847Z,7.00
2022-08-21T19:54:01.669Z,5.80
2022-08-21T19:55:34.993Z,4.60
2022-08-21T19:57:07.338Z,5.40
2022-08-21T19:58:39.945Z,6.40
2022-08-21T20:00:12.590Z,5.40
2022-08-21T20:01:44.448Z,5.40
2022-08-21T20:03:16.546Z,4.80
2022-08-21T20:04:54.964Z,5.80
2022-08-21T20:06:26.918Z,6.00
2022-08-21T20:07:58.851Z,5.00
2022-08-21T20:09:31.411Z,8.60
2022-08-21T20:11:04.099Z,8.80
2022-08-21T20:12:36.268Z,7.40
2022-08-21T20:14:08.384Z,8.20
2022-08-21T20:15:40.130Z,6.60
2022-08-21T20:17:12.978Z,9.80
2022-08-21T20:18:45.511Z,6.60
2022-08-21T20:20:19.512Z,5.00
2022-08-21T20:21:51.411Z,6.00
2022-08-21T20:25:15.179Z,9.40
2022-08-21T20:26:48.783Z,7.20
2022-08-21T20:28:23.335Z,8.00
2022-08-21T20:29:58.015Z,8.00
2022-08-21T20:31:30.500Z,5.00
2022-08-21T20:33:05.838Z,6.60
2022-08-21T20:34:37.636Z,5.00
2022-08-21T20:36:10.742Z,3.00
2022-08-21T20:37:42.527Z,4.00
2022-08-21T20:39:14.661Z,6.60
2022-08-21T20:40:49.119Z,7.80
2022-08-21T20:42:21.044Z,7.60
2022-08-21T20:43:52.907Z,8.20
2022-08-21T20:45:27.705Z,9.80
2022-08-21T20:46:59.921Z,9.00
2022-08-21T20:48:49.560Z,7.00
2022-08-21T20:50:22.518Z,7.60
2022-08-21T20:51:55.099Z,7.40
2022-08-21T20:53:43.063Z,5.40
2022-08-21T20:55:32.490Z,7.40
2022-08-21T20:57:18.743Z,7.60
2022-08-21T20:59:18.309Z,8.00
2022-08-21T21:00:50.068Z,5.80
2022-08-21T21:02:39.171Z,4.80
2022-08-21T21:04:33.012Z,4.60
2022-08-21T21:06:08.201Z,5.60
2022-08-21T21:08:14.107Z,4.60
2022-08-21T21:09:47.627Z,5.20
2022-08-21T21:11:31.931Z,5.00
2022-08-21T21:13:20.208Z,4.80
2022-08-21T21:14:53.983Z,4.20
2022-08-21T21:16:36.378Z,4.80
2022-08-21T21:18:26.480Z,4.00
2022-08-21T21:20:05.968Z,4.00
2022-08-21T21:21:40.784Z,3.00
2022-08-21T21:23:36.769Z,4.00
2022-08-21T21:25:40.036Z,4.00
2022-08-21T21:27:20.243Z,4.00
2022-08-21T21:28:59.001Z,4.20
2022-08-21T21:30:34.856Z,4.20
2022-08-21T21:32:08.017Z,4.00
2022-08-21T21:33:39.866Z,4.00
2022-08-21T21:35:13.740Z,3.80
2022-08-21T21:37:25.335Z,4.60
2022-08-21T21:39:09.092Z,3.00
2022-08-21T21:41:01.979Z,3.00
2022-08-21T21:42:49.920Z,5.00
2022-08-21T21:44:24.153Z,2.80
2022-08-21T21:46:05.088Z,4.00
2022-08-21T21:47:48.906Z,4.00
2022-08-21T21:49:49.659Z,2.00
2022-08-21T21:51:25.638Z,3.60
2022-08-21T21:53:18.932Z,8.20
2022-08-21T21:54:58.929Z,15.00
2022-08-21T21:57:12.056Z,6.60
2022-08-21T21:58:54.457Z,5.00
2022-08-21T22:00:27.761Z,4.80
2022-08-21T22:02:10.844Z,3.80
2022-08-21T22:03:59.888Z,4.60
2022-08-21T22:05:57.495Z,6.00
2022-08-21T22:07:42.606Z,7.60
2022-08-21T22:09:40.507Z,6.00
2022-08-21T22:11:24.484Z,4.00
2022-08-21T22:13:38.706Z,10.00
2022-08-21T22:15:10.846Z,7.00
2022-08-21T22:16:45.068Z,9.20
2022-08-21T22:18:19.310Z,3.40
2022-08-21T22:19:51.133Z,2.00
2022-08-21T22:21:36.674Z,3.60
2022-08-21T22:23:12.970Z,1.20
2022-08-21T22:24:50.638Z,3.00
2022-08-21T22:26:34.089Z,3.20
2022-08-21T22:28:09.891Z,2.80
2022-08-21T22:29:48.599Z,3.00
2022-08-21T22:31:23.125Z,3.00
2022-08-21T22:32:54.980Z,3.00
2022-08-21T22:34:28.754Z,3.80
